sensor_id;sensor_type;location;lat;lon;timestamp;pressure;altitude;pressure_sealevel;temperature;humidity
72409;BME280;60402;48.082;11.628;2023-05-02T00:00:14;95401.50;;;9.66;100.00
72409;BME280;60402;48.082;11.628;2023-05-02T00:03:00;95404.41;;;9.62;100.00
72409;BME280;60402;48.082;11.628;2023-05-02T00:05:46;95386.31;;;9.43;100.00
72409;BME280;60402;48.082;11.628;2023-05-02T00:08:31;95397.53;;;9.63;100.00
72409;BME280;60402;48.082;11.628;2023-05-02T00:11:17;95411.09;;;9.68;100.00
72409;BME280;60402;48.082;11.628;2023-05-02T00:14:03;95399.22;;;9.61;100.00
72409;BME280;60402;48.082;11.628;2023-05-02T00:16:48;95412.25;;;9.71;100.00
72409;BME280;60402;48.082;11.628;2023-05-02T00:19:37;95400.00;;;9.61;100.00
72409;BME280;60402;48.082;11.628;2023-05-02T00:22:24;95403.97;;;9.64;100.00
72409;BME280;60402;48.082;11.628;2023-05-02T00:25:10;95401.06;;;9.67;100.00
72409;BME280;60402;48.082;11.628;2023-05-02T00:28:00;95393.72;;;9.54;100.00
72409;BME280;60402;48.082;11.628;2023-05-02T00:30:46;95400.88;;;9.58;100.00
72409;BME280;60402;48.082;11.628;2023-05-02T00:33:32;95407.06;;;9.69;100.00
72409;BME280;60402;48.082;11.628;2023-05-02T00:36:18;95411.09;;;9.68;100.00
72409;BME280;60402;48.082;11.628;2023-05-02T00:39:04;95393.72;;;9.54;100.00
72409;BME280;60402;48.082;11.628;2023-05-02T00:41:59;95397.19;;;9.61;100.00
72409;BME280;60402;48.082;11.628;2023-05-02T00:44:45;95403.97;;;9.64;100.00
72409;BME280;60402;48.082;11.628;2023-05-02T00:47:31;95393.72;;;9.54;100.00
72409;BME280;60402;48.082;11.628;2023-05-02T00:50:17;95399.63;;;9.59;100.00
72409;BME280;60402;48.082;11.628;2023-05-02T00:53:03;95398.78;;;9.46;100.00
72409;BME280;60402;48.082;11.628;2023-05-02T00:55:49;95387.00;;;9.31;100.00
72409;BME280;60402;48.082;11.628;2023-05-02T00:58:37;95393.28;;;9.39;100.00
72409;BME280;60402;48.082;11.628;2023-05-02T01:01:43;95409.41;;;9.38;100.00
72409;BME280;60402;48.082;11.628;2023-05-02T01:05:01;95408.25;;;9.36;100.00
72409;BME280;60402;48.082;11.628;2023-05-02T01:08:01;95408.97;;;9.40;100.00
72409;BME280;60402;48.082;11.628;2023-05-02T01:11:13;95410.38;;;9.32;100.00
72409;BME280;60402;48.082;11.628;2023-05-02T01:14:00;95410.59;;;9.21;100.00
72409;BME280;60402;48.082;11.628;2023-05-02T01:16:53;95398.78;;;9.10;100.00
72409;BME280;60402;48.082;11.628;2023-05-02T01:19:44;95382.75;;;9.07;100.00
72409;BME280;60402;48.082;11.628;2023-05-02T01:22:34;95400.44;;;9.07;100.00
72409;BME280;60402;48.082;11.628;2023-05-02T01:25:32;95387.50;;;9.10;100.00
72409;BME280;60402;48.082;11.628;2023-05-02T01:28:35;95413.41;;;9.05;100.00
72409;BME280;60402;48.082;11.628;2023-05-02T01:31:28;95413.41;;;9.05;100.00
72409;BME280;60402;48.082;11.628;2023-05-02T01:34:17;95399.19;;;8.92;100.00
72409;BME280;60402;48.082;11.628;2023-05-02T01:37:05;95391.31;;;8.83;100.00
72409;BME280;60402;48.082;11.628;2023-05-02T01:39:53;95424.03;;;8.97;100.00
72409;BME280;60402;48.082;11.628;2023-05-02T01:42:39;95417.94;;;8.99;100.00
72409;BME280;60402;48.082;11.628;2023-05-02T01:45:27;95391.25;;;8.87;100.00
72409;BME280;60402;48.082;11.628;2023-05-02T01:48:14;95403.81;;;8.82;100.00
72409;BME280;60402;48.082;11.628;2023-05-02T01:51:01;95408.72;;;8.78;100.00
72409;BME280;60402;48.082;11.628;2023-05-02T01:53:48;95412.34;;;8.79;100.00
72409;BME280;60402;48.082;11.628;2023-05-02T01:56:36;95414.88;;;8.73;100.00
72409;BME280;60402;48.082;11.628;2023-05-02T01:59:24;95401.59;;;8.54;100.00
72409;BME280;60402;48.082;11.628;2023-05-02T02:02:12;95418.72;;;8.63;100.00
72409;BME280;60402;48.082;11.628;2023-05-02T02:04:59;95418.84;;;8.56;100.00
72409;BME280;60402;48.082;11.628;2023-05-02T02:07:45;95416.63;;;8.47;100.00
72409;BME280;60402;48.082;11.628;2023-05-02T02:10:35;95417.81;;;8.46;100.00
72409;BME280;60402;48.082;11.628;2023-05-02T02:13:30;95427.56;;;8.41;100.00
72409;BME280;60402;48.082;11.628;2023-05-02T02:16:23;95441.09;;;8.70;100.00
72409;BME280;60402;48.082;11.628;2023-05-02T02:19:12;95434.81;;;8.62;100.00
72409;BME280;60402;48.082;11.628;2023-05-02T02:21:59;95431.63;;;8.60;100.00
72409;BME280;60402;48.082;11.628;2023-05-02T02:24:46;95432.91;;;8.56;100.00
72409;BME280;60402;48.082;11.628;2023-05-02T02:27:33;95428.91;;;8.57;100.00
72409;BME280;60402;48.082;11.628;2023-05-02T02:30:18;95433.53;;;8.67;100.00
72409;BME280;60402;48.082;11.628;2023-05-02T02:33:04;95431.13;;;8.65;100.00
72409;BME280;60402;48.082;11.628;2023-05-02T02:35:57;95421.38;;;8.50;100.00
72409;BME280;60402;48.082;11.628;2023-05-02T02:38:56;95424.47;;;8.56;100.00
72409;BME280;60402;48.082;11.628;2023-05-02T02:41:59;95452.88;;;8.65;100.00
72409;BME280;60402;48.082;11.628;2023-05-02T02:44:58;95448.84;;;8.66;100.00
72409;BME280;60402;48.082;11.628;2023-05-02T02:48:00;95442.97;;;8.57;100.00
72409;BME280;60402;48.082;11.628;2023-05-02T02:56:40;95442.75;;;8.48;100.00
72409;BME280;60402;48.082;11.628;2023-05-02T02:59:34;95455.84;;;8.58;100.00
72409;BME280;60402;48.082;11.628;2023-05-02T03:02:27;95442.38;;;8.45;100.00
72409;BME280;60402;48.082;11.628;2023-05-02T03:05:14;95466.66;;;8.59;100.00
72409;BME280;60402;48.082;11.628;2023-05-02T03:08:00;95445.94;;;8.50;100.00
72409;BME280;60402;48.082;11.628;2023-05-02T03:10:45;95448.31;;;8.51;100.00
72409;BME280;60402;48.082;11.628;2023-05-02T03:13:31;95450.19;;;8.58;100.00
72409;BME280;60402;48.082;11.628;2023-05-02T03:16:36;95472.97;;;8.67;100.00
72409;BME280;60402;48.082;11.628;2023-05-02T03:19:22;95448.75;;;8.50;100.00
72409;BME280;60402;48.082;11.628;2023-05-02T03:22:07;95457.56;;;8.52;100.00
72409;BME280;60402;48.082;11.628;2023-05-02T03:24:53;95463.84;;;8.59;100.00
72409;BME280;60402;48.082;11.628;2023-05-02T03:27:39;95440.00;;;8.44;100.00
72409;BME280;60402;48.082;11.628;2023-05-02T03:30:24;95470.22;;;8.63;100.00
72409;BME280;60402;48.082;11.628;2023-05-02T03:33:10;95466.75;;;8.76;100.00
72409;BME280;60402;48.082;11.628;2023-05-02T03:35:56;95465.06;;;8.58;100.00
72409;BME280;60402;48.082;11.628;2023-05-02T03:38:42;95469.41;;;8.63;100.00
72409;BME280;60402;48.082;11.628;2023-05-02T03:41:27;95462.75;;;8.53;100.00
72409;BME280;60402;48.082;11.628;2023-05-02T03:44:13;95477.81;;;8.66;100.00
72409;BME280;60402;48.082;11.628;2023-05-02T03:46:58;95469.41;;;8.63;100.00
72409;BME280;60402;48.082;11.628;2023-05-02T03:49:44;95476.28;;;8.62;100.00
72409;BME280;60402;48.082;11.628;2023-05-02T03:52:32;95483.06;;;8.64;100.00
72409;BME280;60402;48.082;11.628;2023-05-02T03:55:18;95477.19;;;8.55;100.00
72409;BME280;60402;48.082;11.628;2023-05-02T03:58:03;95468.97;;;8.44;100.00
72409;BME280;60402;48.082;11.628;2023-05-02T04:00:49;95482.09;;;8.51;100.00
72409;BME280;60402;48.082;11.628;2023-05-02T04:03:37;95485.34;;;8.50;100.00
72409;BME280;60402;48.082;11.628;2023-05-02T04:06:22;95498.69;;;8.45;100.00
72409;BME280;60402;48.082;11.628;2023-05-02T04:09:08;95491.94;;;8.43;100.00
72409;BME280;60402;48.082;11.628;2023-05-02T04:11:54;95511.00;;;8.55;100.00
72409;BME280;60402;48.082;11.628;2023-05-02T04:14:39;95509.47;;;8.51;100.00
72409;BME280;60402;48.082;11.628;2023-05-02T04:17:25;95498.75;;;8.42;100.00
72409;BME280;60402;48.082;11.628;2023-05-02T04:20:11;95488.00;;;8.37;100.00
72409;BME280;60402;48.082;11.628;2023-05-02T04:22:56;95510.50;;;8.37;100.00
72409;BME280;60402;48.082;11.628;2023-05-02T04:25:53;95507.28;;;8.38;100.00
72409;BME280;60402;48.082;11.628;2023-05-02T04:28:39;95519.19;;;8.46;100.00
72409;BME280;60402;48.082;11.628;2023-05-02T04:31:25;95524.47;;;8.44;100.00
72409;BME280;60402;48.082;11.628;2023-05-02T04:34:11;95526.38;;;8.51;100.00
72409;BME280;60402;48.082;11.628;2023-05-02T04:36:57;95519.38;;;8.59;100.00
72409;BME280;60402;48.082;11.628;2023-05-02T04:39:42;95511.06;;;8.52;100.00
72409;BME280;60402;48.082;11.628;2023-05-02T04:42:28;95519.44;;;8.55;100.00
72409;BME280;60402;48.082;11.628;2023-05-02T04:45:14;95525.38;;;8.61;100.00
72409;BME280;60402;48.082;11.628;2023-05-02T04:47:59;95522.09;;;8.66;100.00
72409;BME280;60402;48.082;11.628;2023-05-02T04:50:45;95531.16;;;8.74;100.00
72409;BME280;60402;48.082;11.628;2023-05-02T04:53:31;95521.50;;;8.75;100.00
72409;BME280;60402;48.082;11.628;2023-05-02T04:56:17;95537.03;;;8.83;100.00
72409;BME280;60402;48.082;11.628;2023-05-02T04:59:02;95557.50;;;9.07;100.00
72409;BME280;60402;48.082;11.628;2023-05-02T05:01:48;95549.22;;;9.00;100.00
72409;BME280;60402;48.082;11.628;2023-05-02T05:04:34;95556.59;;;9.13;100.00
72409;BME280;60402;48.082;11.628;2023-05-02T05:07:19;95557.16;;;9.25;100.00
72409;BME280;60402;48.082;11.628;2023-05-02T05:10:06;95549.03;;;9.27;100.00
72409;BME280;60402;48.082;11.628;2023-05-02T05:12:52;95567.47;;;9.31;100.00
72409;BME280;60402;48.082;11.628;2023-05-02T05:15:38;95580.81;;;9.51;100.00
72409;BME280;60402;48.082;11.628;2023-05-02T05:18:24;95570.31;;;9.51;100.00
72409;BME280;60402;48.082;11.628;2023-05-02T05:21:10;95566.69;;;9.51;100.00
72409;BME280;60402;48.082;11.628;2023-05-02T05:23:55;95575.44;;;9.56;100.00
72409;BME280;60402;48.082;11.628;2023-05-02T05:26:41;95595.50;;;9.78;100.00
72409;BME280;60402;48.082;11.628;2023-05-02T05:29:27;95580.31;;;9.72;100.00
72409;BME280;60402;48.082;11.628;2023-05-02T05:32:15;95589.97;;;9.75;100.00
72409;BME280;60402;48.082;11.628;2023-05-02T05:35:01;95592.34;;;9.76;100.00
72409;BME280;60402;48.082;11.628;2023-05-02T05:37:46;95583.34;;;9.81;100.00
72409;BME280;60402;48.082;11.628;2023-05-02T05:40:32;95596.59;;;9.84;100.00
72409;BME280;60402;48.082;11.628;2023-05-02T05:43:18;95618.69;;;10.06;100.00
72409;BME280;60402;48.082;11.628;2023-05-02T05:46:03;95610.91;;;9.93;100.00
72409;BME280;60402;48.082;11.628;2023-05-02T05:48:49;95616.97;;;9.92;100.00
72409;BME280;60402;48.082;11.628;2023-05-02T05:51:35;95628.06;;;10.03;100.00
72409;BME280;60402;48.082;11.628;2023-05-02T05:54:21;95626.53;;;9.98;100.00
72409;BME280;60402;48.082;11.628;2023-05-02T05:57:06;95633.78;;;10.15;100.00
72409;BME280;60402;48.082;11.628;2023-05-02T05:59:52;95623.22;;;9.83;100.00
72409;BME280;60402;48.082;11.628;2023-05-02T06:02:37;95629.03;;;10.12;100.00
72409;BME280;60402;48.082;11.628;2023-05-02T06:05:23;95639.25;;;10.06;100.00
72409;BME280;60402;48.082;11.628;2023-05-02T06:08:09;95612.38;;;10.18;100.00
72409;BME280;60402;48.082;11.628;2023-05-02T06:10:54;95640.50;;;10.41;100.00
72409;BME280;60402;48.082;11.628;2023-05-02T06:13:40;95625.16;;;10.22;100.00
72409;BME280;60402;48.082;11.628;2023-05-02T06:16:26;95621.09;;;10.23;100.00
72409;BME280;60402;48.082;11.628;2023-05-02T06:19:11;95636.88;;;10.41;100.00
72409;BME280;60402;48.082;11.628;2023-05-02T06:21:57;95640.16;;;10.56;100.00
72409;BME280;60402;48.082;11.628;2023-05-02T06:24:43;95638.66;;;10.67;100.00
72409;BME280;60402;48.082;11.628;2023-05-02T06:27:28;95650.91;;;10.77;100.00
72409;BME280;60402;48.082;11.628;2023-05-02T06:30:14;95655.97;;;10.86;100.00
72409;BME280;60402;48.082;11.628;2023-05-02T06:33:03;95650.22;;;11.06;100.00
72409;BME280;60402;48.082;11.628;2023-05-02T06:35:51;95633.94;;;11.10;100.00
72409;BME280;60402;48.082;11.628;2023-05-02T06:38:37;95642.16;;;11.20;100.00
72409;BME280;60402;48.082;11.628;2023-05-02T06:41:23;95659.25;;;11.46;100.00
72409;BME280;60402;48.082;11.628;2023-05-02T06:44:09;95644.53;;;11.51;100.00
72409;BME280;60402;48.082;11.628;2023-05-02T06:46:54;95652.88;;;11.71;100.00
72409;BME280;60402;48.082;11.628;2023-05-02T06:49:40;95675.53;;;12.00;100.00
72409;BME280;60402;48.082;11.628;2023-05-02T06:52:26;95651.97;;;12.03;100.00
72409;BME280;60402;48.082;11.628;2023-05-02T06:55:11;95683.53;;;12.31;100.00
72409;BME280;60402;48.082;11.628;2023-05-02T06:57:58;95671.03;;;12.15;100.00
72409;BME280;60402;48.082;11.628;2023-05-02T07:00:43;95671.94;;;12.12;100.00
72409;BME280;60402;48.082;11.628;2023-05-02T07:03:29;95685.97;;;12.03;100.00
72409;BME280;60402;48.082;11.628;2023-05-02T07:06:15;95681.16;;;12.29;100.00
72409;BME280;60402;48.082;11.628;2023-05-02T07:09:01;95689.78;;;12.38;100.00
72409;BME280;60402;48.082;11.628;2023-05-02T07:11:46;95690.44;;;12.30;100.00
72409;BME280;60402;48.082;11.628;2023-05-02T07:14:32;95689.34;;;12.52;100.00
72409;BME280;60402;48.082;11.628;2023-05-02T07:17:17;95682.97;;;12.87;100.00
72409;BME280;60402;48.082;11.628;2023-05-02T07:20:04;95682.63;;;13.23;100.00
72409;BME280;60402;48.082;11.628;2023-05-02T07:22:50;95672.19;;;13.54;100.00
72409;BME280;60402;48.082;11.628;2023-05-02T07:25:36;95675.00;;;13.20;100.00
72409;BME280;60402;48.082;11.628;2023-05-02T07:28:22;95665.81;;;13.28;100.00
72409;BME280;60402;48.082;11.628;2023-05-02T07:31:07;95665.69;;;13.32;100.00
72409;BME280;60402;48.082;11.628;2023-05-02T07:33:53;95676.56;;;13.46;100.00
72409;BME280;60402;48.082;11.628;2023-05-02T07:36:38;95674.25;;;13.54;99.86
72409;BME280;60402;48.082;11.628;2023-05-02T07:39:24;95688.69;;;13.81;99.39
72409;BME280;60402;48.082;11.628;2023-05-02T07:42:10;95694.41;;;13.69;99.45
72409;BME280;60402;48.082;11.628;2023-05-02T07:44:56;95677.88;;;13.54;99.77
72409;BME280;60402;48.082;11.628;2023-05-02T07:47:42;95680.63;;;13.45;99.31
72409;BME280;60402;48.082;11.628;2023-05-02T07:50:28;95685.19;;;13.17;100.00
72409;BME280;60402;48.082;11.628;2023-05-02T07:53:13;95678.56;;;12.86;100.00
72409;BME280;60402;48.082;11.628;2023-05-02T07:55:59;95703.31;;;12.85;100.00
72409;BME280;60402;48.082;11.628;2023-05-02T07:58:45;95701.47;;;12.78;100.00
72409;BME280;60402;48.082;11.628;2023-05-02T08:01:31;95678.53;;;12.98;100.00
72409;BME280;60402;48.082;11.628;2023-05-02T08:04:16;95697.00;;;13.16;100.00
72409;BME280;60402;48.082;11.628;2023-05-02T08:07:02;95677.53;;;13.05;100.00
72409;BME280;60402;48.082;11.628;2023-05-02T08:09:47;95688.41;;;13.32;100.00
72409;BME280;60402;48.082;11.628;2023-05-02T08:12:40;95721.41;;;13.51;100.00
72409;BME280;60402;48.082;11.628;2023-05-02T08:15:26;95708.91;;;13.49;100.00
72409;BME280;60402;48.082;11.628;2023-05-02T08:18:11;95711.44;;;13.69;99.90
72409;BME280;60402;48.082;11.628;2023-05-02T08:20:57;95710.03;;;13.86;99.23
72409;BME280;60402;48.082;11.628;2023-05-02T08:23:42;95697.72;;;14.11;99.14
72409;BME280;60402;48.082;11.628;2023-05-02T08:26:29;95706.31;;;14.20;98.09
72409;BME280;60402;48.082;11.628;2023-05-02T08:29:15;95714.03;;;14.54;99.02
72409;BME280;60402;48.082;11.628;2023-05-02T08:32:01;95702.75;;;14.73;96.22
72409;BME280;60402;48.082;11.628;2023-05-02T08:34:46;95711.31;;;15.22;95.25
72409;BME280;60402;48.082;11.628;2023-05-02T08:37:32;95714.69;;;15.39;95.11
72409;BME280;60402;48.082;11.628;2023-05-02T08:40:19;95702.22;;;15.05;93.23
72409;BME280;60402;48.082;11.628;2023-05-02T08:43:05;95715.97;;;15.56;91.68
72409;BME280;60402;48.082;11.628;2023-05-02T08:45:53;95716.16;;;15.62;89.70
72409;BME280;60402;48.082;11.628;2023-05-02T08:48:41;95723.16;;;15.79;89.35
72409;BME280;60402;48.082;11.628;2023-05-02T08:51:28;95736.94;;;15.81;90.19
72409;BME280;60402;48.082;11.628;2023-05-02T08:54:17;95731.09;;;16.03;90.70
72409;BME280;60402;48.082;11.628;2023-05-02T08:57:04;95744.22;;;16.37;89.84
72409;BME280;60402;48.082;11.628;2023-05-02T08:59:50;95724.22;;;16.74;88.57
72409;BME280;60402;48.082;11.628;2023-05-02T09:02:50;95749.13;;;16.73;85.93
72409;BME280;60402;48.082;11.628;2023-05-02T09:05:41;95739.44;;;16.71;87.59
72409;BME280;60402;48.082;11.628;2023-05-02T09:08:27;95748.69;;;16.38;86.52
72409;BME280;60402;48.082;11.628;2023-05-02T09:11:12;95747.22;;;16.52;86.13
72409;BME280;60402;48.082;11.628;2023-05-02T09:13:58;95754.06;;;17.15;83.25
72409;BME280;60402;48.082;11.628;2023-05-02T09:16:48;95752.47;;;17.23;79.57
72409;BME280;60402;48.082;11.628;2023-05-02T09:19:34;95752.94;;;16.61;78.82
72409;BME280;60402;48.082;11.628;2023-05-02T09:22:23;95750.47;;;17.05;80.71
72409;BME280;60402;48.082;11.628;2023-05-02T09:25:10;95756.56;;;16.80;79.17
72409;BME280;60402;48.082;11.628;2023-05-02T09:27:55;95752.47;;;16.44;80.15
72409;BME280;60402;48.082;11.628;2023-05-02T09:30:41;95723.97;;;15.98;83.63
72409;BME280;60402;48.082;11.628;2023-05-02T09:33:27;95748.69;;;16.20;80.01
72409;BME280;60402;48.082;11.628;2023-05-02T09:36:14;95763.41;;;16.00;81.56
72409;BME280;60402;48.082;11.628;2023-05-02T09:39:07;95763.56;;;16.15;79.66
72409;BME280;60402;48.082;11.628;2023-05-02T09:41:54;95739.63;;;16.03;77.49
72409;BME280;60402;48.082;11.628;2023-05-02T09:44:40;95758.78;;;15.93;81.44
72409;BME280;60402;48.082;11.628;2023-05-02T09:47:27;95743.25;;;15.85;80.04
72409;BME280;60402;48.082;11.628;2023-05-02T09:50:31;95769.28;;;15.56;80.67
72409;BME280;60402;48.082;11.628;2023-05-02T09:53:17;95756.78;;;15.44;80.79
72409;BME280;60402;48.082;11.628;2023-05-02T09:56:04;95767.72;;;15.55;81.64
72409;BME280;60402;48.082;11.628;2023-05-02T09:58:49;95757.13;;;15.55;78.77
72409;BME280;60402;48.082;11.628;2023-05-02T10:01:35;95743.28;;;15.36;81.80
72409;BME280;60402;48.082;11.628;2023-05-02T10:04:21;95764.75;;;15.18;84.71
72409;BME280;60402;48.082;11.628;2023-05-02T10:07:08;95763.16;;;15.17;83.75
72409;BME280;60402;48.082;11.628;2023-05-02T10:09:57;95768.81;;;15.08;83.03
72409;BME280;60402;48.082;11.628;2023-05-02T10:12:44;95746.34;;;15.01;83.43
72409;BME280;60402;48.082;11.628;2023-05-02T10:15:33;95755.63;;;15.32;81.79
72409;BME280;60402;48.082;11.628;2023-05-02T10:21:26;95740.28;;;15.30;83.00
72409;BME280;60402;48.082;11.628;2023-05-02T10:24:12;95747.97;;;15.11;83.87
72409;BME280;60402;48.082;11.628;2023-05-02T10:26:58;95764.97;;;15.42;84.72
72409;BME280;60402;48.082;11.628;2023-05-02T10:29:45;95772.28;;;15.43;82.39
72409;BME280;60402;48.082;11.628;2023-05-02T10:32:35;95754.84;;;15.41;81.37
72409;BME280;60402;48.082;11.628;2023-05-02T10:35:21;95763.75;;;15.52;79.85
72409;BME280;60402;48.082;11.628;2023-05-02T10:38:07;95751.50;;;15.24;79.61
72409;BME280;60402;48.082;11.628;2023-05-02T10:41:01;95758.22;;;15.49;81.01
72409;BME280;60402;48.082;11.628;2023-05-02T10:43:48;95741.13;;;15.49;79.70
72409;BME280;60402;48.082;11.628;2023-05-02T10:46:38;95761.78;;;15.31;82.04
72409;BME280;60402;48.082;11.628;2023-05-02T10:49:27;95743.59;;;15.38;79.25
72409;BME280;60402;48.082;11.628;2023-05-02T10:55:22;95749.97;;;15.01;83.43
72409;BME280;60402;48.082;11.628;2023-05-02T11:04:15;95730.13;;;15.29;82.34
72409;BME280;60402;48.082;11.628;2023-05-02T11:09:49;95737.41;;;15.89;77.93
72409;BME280;60402;48.082;11.628;2023-05-02T11:12:49;95743.59;;;15.78;79.28
72409;BME280;60402;48.082;11.628;2023-05-02T11:18:58;95740.41;;;15.85;77.65
72409;BME280;60402;48.082;11.628;2023-05-02T11:21:47;95741.69;;;16.02;74.23
72409;BME280;60402;48.082;11.628;2023-05-02T11:24:41;95738.09;;;15.52;70.09
72409;BME280;60402;48.082;11.628;2023-05-02T11:30:35;95777.16;;;15.02;72.96
72409;BME280;60402;48.082;11.628;2023-05-02T11:33:21;95774.66;;;14.73;75.88
72409;BME280;60402;48.082;11.628;2023-05-02T11:36:07;95769.66;;;14.43;79.18
72409;BME280;60402;48.082;11.628;2023-05-02T11:38:53;95770.47;;;13.87;80.79
72409;BME280;60402;48.082;11.628;2023-05-02T11:41:42;95792.41;;;13.73;82.81
72409;BME280;60402;48.082;11.628;2023-05-02T11:44:28;95777.94;;;12.82;91.73
72409;BME280;60402;48.082;11.628;2023-05-02T11:47:13;95783.06;;;12.45;92.63
72409;BME280;60402;48.082;11.628;2023-05-02T11:50:03;95770.72;;;12.39;96.56
72409;BME280;60402;48.082;11.628;2023-05-02T11:52:49;95768.38;;;12.21;96.90
72409;BME280;60402;48.082;11.628;2023-05-02T11:55:35;95787.25;;;12.28;98.79
72409;BME280;60402;48.082;11.628;2023-05-02T11:58:26;95782.91;;;12.23;98.62
72409;BME280;60402;48.082;11.628;2023-05-02T12:01:14;95806.66;;;12.42;99.81
72409;BME280;60402;48.082;11.628;2023-05-02T12:04:06;95810.78;;;12.25;99.44
72409;BME280;60402;48.082;11.628;2023-05-02T12:06:58;95787.25;;;12.28;99.92
72409;BME280;60402;48.082;11.628;2023-05-02T12:09:50;95778.63;;;12.32;100.00
72409;BME280;60402;48.082;11.628;2023-05-02T12:12:37;95796.69;;;12.50;100.00
72409;BME280;60402;48.082;11.628;2023-05-02T12:15:24;95767.78;;;12.14;100.00
72409;BME280;60402;48.082;11.628;2023-05-02T12:18:10;95785.34;;;12.50;100.00
72409;BME280;60402;48.082;11.628;2023-05-02T12:20:56;95780.03;;;12.52;100.00
72409;BME280;60402;48.082;11.628;2023-05-02T12:23:42;95781.81;;;12.46;100.00
72409;BME280;60402;48.082;11.628;2023-05-02T12:26:28;95774.19;;;12.31;100.00
72409;BME280;60402;48.082;11.628;2023-05-02T12:29:16;95767.69;;;12.59;97.82
72409;BME280;60402;48.082;11.628;2023-05-02T12:32:01;95770.78;;;11.77;100.00
72409;BME280;60402;48.082;11.628;2023-05-02T12:34:47;95758.91;;;11.05;100.00
72409;BME280;60402;48.082;11.628;2023-05-02T12:37:33;95775.28;;;10.77;100.00
72409;BME280;60402;48.082;11.628;2023-05-02T12:40:19;95746.16;;;10.64;100.00
72409;BME280;60402;48.082;11.628;2023-05-02T12:43:05;95791.09;;;11.11;100.00
72409;BME280;60402;48.082;11.628;2023-05-02T12:46:10;95787.69;;;11.81;100.00
72409;BME280;60402;48.082;11.628;2023-05-02T12:49:04;95814.94;;;12.49;100.00
72409;BME280;60402;48.082;11.628;2023-05-02T12:51:53;95812.19;;;12.88;100.00
72409;BME280;60402;48.082;11.628;2023-05-02T12:54:40;95803.81;;;12.97;100.00
72409;BME280;60402;48.082;11.628;2023-05-02T12:57:26;95801.78;;;13.48;100.00
72409;BME280;60402;48.082;11.628;2023-05-02T13:00:18;95811.13;;;13.36;98.99
72409;BME280;60402;48.082;11.628;2023-05-02T13:03:04;95808.59;;;13.13;100.00
72409;BME280;60402;48.082;11.628;2023-05-02T13:05:53;95806.13;;;13.27;99.24
72409;BME280;60402;48.082;11.628;2023-05-02T13:08:39;95796.00;;;13.14;97.07
72409;BME280;60402;48.082;11.628;2023-05-02T13:11:25;95811.38;;;12.74;99.15
72409;BME280;60402;48.082;11.628;2023-05-02T13:14:10;95782.47;;;12.92;100.00
72409;BME280;60402;48.082;11.628;2023-05-02T13:16:56;95797.56;;;12.89;100.00
72409;BME280;60402;48.082;11.628;2023-05-02T13:19:42;95805.34;;;13.27;97.52
72409;BME280;60402;48.082;11.628;2023-05-02T13:22:28;95774.88;;;13.02;98.17
72409;BME280;60402;48.082;11.628;2023-05-02T13:25:13;95793.72;;;12.96;94.87
72409;BME280;60402;48.082;11.628;2023-05-02T13:27:59;95795.41;;;13.06;96.95
72409;BME280;60402;48.082;11.628;2023-05-02T13:30:45;95809.09;;;13.37;90.73
72409;BME280;60402;48.082;11.628;2023-05-02T13:33:30;95785.75;;;13.54;91.90
72409;BME280;60402;48.082;11.628;2023-05-02T13:36:16;95791.38;;;13.93;95.59
72409;BME280;60402;48.082;11.628;2023-05-02T13:39:02;95771.47;;;13.45;90.89
72409;BME280;60402;48.082;11.628;2023-05-02T13:41:48;95794.34;;;13.89;93.40
72409;BME280;60402;48.082;11.628;2023-05-02T13:44:34;95770.53;;;13.61;93.63
72409;BME280;60402;48.082;11.628;2023-05-02T13:47:20;95799.44;;;13.81;92.39
72409;BME280;60402;48.082;11.628;2023-05-02T13:50:07;95776.97;;;14.09;91.85
72409;BME280;60402;48.082;11.628;2023-05-02T13:52:52;95786.09;;;14.04;85.62
72409;BME280;60402;48.082;11.628;2023-05-02T13:55:39;95788.44;;;14.18;86.49
72409;BME280;60402;48.082;11.628;2023-05-02T13:58:25;95793.63;;;13.38;84.62
72409;BME280;60402;48.082;11.628;2023-05-02T14:01:10;95788.84;;;13.47;86.87
72409;BME280;60402;48.082;11.628;2023-05-02T14:03:56;95786.84;;;13.82;87.78
72409;BME280;60402;48.082;11.628;2023-05-02T14:06:42;95800.69;;;13.93;86.44
72409;BME280;60402;48.082;11.628;2023-05-02T14:09:28;95807.25;;;14.03;87.23
72409;BME280;60402;48.082;11.628;2023-05-02T14:12:13;95800.81;;;13.90;86.93
72409;BME280;60402;48.082;11.628;2023-05-02T14:14:59;95797.66;;;13.75;87.37
72409;BME280;60402;48.082;11.628;2023-05-02T14:17:45;95805.16;;;13.69;87.11
72409;BME280;60402;48.082;11.628;2023-05-02T14:20:30;95806.59;;;13.86;86.64
72409;BME280;60402;48.082;11.628;2023-05-02T14:23:16;95822.78;;;14.11;85.25
72409;BME280;60402;48.082;11.628;2023-05-02T14:26:02;95840.06;;;14.17;84.26
72409;BME280;60402;48.082;11.628;2023-05-02T14:28:48;95863.16;;;13.17;88.59
72409;BME280;60402;48.082;11.628;2023-05-02T14:31:34;95855.56;;;12.01;88.62
72409;BME280;60402;48.082;11.628;2023-05-02T14:34:20;95832.13;;;11.84;89.98
72409;BME280;60402;48.082;11.628;2023-05-02T14:37:06;95842.47;;;11.25;90.62
72409;BME280;60402;48.082;11.628;2023-05-02T14:39:53;95834.06;;;10.86;92.66
72409;BME280;60402;48.082;11.628;2023-05-02T14:42:41;95859.38;;;10.93;95.65
72409;BME280;60402;48.082;11.628;2023-05-02T14:45:26;95848.09;;;10.33;100.00
72409;BME280;60402;48.082;11.628;2023-05-02T14:48:12;95830.00;;;10.31;100.00
72409;BME280;60402;48.082;11.628;2023-05-02T14:51:02;95815.03;;;10.10;100.00
72409;BME280;60402;48.082;11.628;2023-05-02T14:53:48;95834.66;;;10.17;100.00
72409;BME280;60402;48.082;11.628;2023-05-02T14:56:34;95816.56;;;10.15;100.00
72409;BME280;60402;48.082;11.628;2023-05-02T14:59:20;95840.81;;;10.12;100.00